Time;durP1;ratioP1;P1;durP2;ratioP2;P2;SDS_P1;SDS_P2;PMS_P1;PMS_P2;Temp;Humidity;BMP_temperature;BMP_pressure;BME280_temperature;BME280_humidity;BME280_pressure;Samples;Min_cycle;Max_cycle;Signal;HPM_P1;HPM_P2
2023/12/12 00:07:31;;;;;;;16.00;11.20;;;;;;;5.41;98.71;98268.98;214119;1295;659185;-68
2023/12/12 00:12:36;;;;;;;16.10;10.90;;;;;;;5.40;98.71;98274.58;216043;1273;138742;-69
2023/12/12 00:17:40;;;;;;;15.30;10.50;;;;;;;5.40;98.65;98281.45;216049;1270;170121;-68
2023/12/12 00:22:46;;;;;;;18.00;12.50;;;;;;;5.40;98.86;98290.27;216293;1269;140978;-69
2023/12/12 00:27:51;;;;;;;15.80;12.70;;;;;;;5.36;98.72;98294.58;216310;1265;139351;-68
2023/12/12 00:32:56;;;;;;;15.90;12.70;;;;;;;5.34;98.64;98305.00;216445;1266;138983;-69
2023/12/12 00:38:00;;;;;;;17.40;14.00;;;;;;;5.33;99.14;98304.56;218590;1266;139310;-68
2023/12/12 00:43:05;;;;;;;17.50;12.60;;;;;;;5.35;98.98;98307.34;218822;1266;140624;-69
2023/12/12 00:48:09;;;;;;;21.80;13.50;;;;;;;5.37;99.18;98320.90;216802;1263;139477;-69
2023/12/12 00:53:13;;;;;;;21.40;14.80;;;;;;;5.40;99.25;98324.48;216911;1263;140761;-69
2023/12/12 00:58:18;;;;;;;19.30;13.30;;;;;;;5.40;99.24;98330.96;218019;1262;139762;-69
2023/12/12 01:03:23;;;;;;;18.70;12.90;;;;;;;5.41;99.40;98341.03;216682;1264;139411;-69
2023/12/12 01:08:27;;;;;;;19.50;13.20;;;;;;;5.44;99.74;98345.20;217100;1262;140352;-70
2023/12/12 01:13:31;;;;;;;20.60;13.40;;;;;;;5.46;99.92;98351.86;217826;1259;140508;-69
2023/12/12 01:18:36;;;;;;;21.50;13.60;;;;;;;5.48;99.83;98354.36;218397;1259;141486;-68
2023/12/12 01:23:51;;;;;;;18.90;12.40;;;;;;;5.49;99.76;98361.05;217526;1259;139260;-69
2023/12/12 01:28:56;;;;;;;26.50;15.00;;;;;;;5.48;99.88;98368.02;217444;1259;139663;-69
2023/12/12 01:34:00;;;;;;;22.10;15.00;;;;;;;5.49;99.86;98374.95;217241;1260;139872;-69
2023/12/12 01:39:04;;;;;;;23.50;14.60;;;;;;;5.50;99.96;98376.46;217826;1259;139268;-69
2023/12/12 01:44:09;;;;;;;21.80;16.90;;;;;;;5.52;99.95;98382.06;217216;1259;138996;-69
2023/12/12 01:49:16;;;;;;;23.10;14.40;;;;;;;5.52;100.00;98385.35;217310;1260;139461;-69
2023/12/12 01:54:21;;;;;;;20.20;14.50;;;;;;;5.53;100.00;98391.19;217498;1262;139111;-68
2023/12/12 01:59:26;;;;;;;24.00;16.90;;;;;;;5.54;100.00;98391.42;218309;1259;141270;-69
2023/12/12 02:04:30;;;;;;;23.50;16.60;;;;;;;5.54;99.98;98397.71;218173;1259;139441;-68
2023/12/12 02:09:36;;;;;;;26.00;15.80;;;;;;;5.54;100.00;98399.09;217334;1260;139058;-68
2023/12/12 02:14:41;;;;;;;20.50;15.20;;;;;;;5.55;100.00;98401.07;217361;1259;139121;-69
2023/12/12 02:19:46;;;;;;;23.90;16.30;;;;;;;5.56;100.00;98406.79;217388;1259;140758;-68
2023/12/12 02:24:52;;;;;;;26.40;17.40;;;;;;;5.57;100.00;98405.42;217229;1262;140463;-68
2023/12/12 02:29:56;;;;;;;25.60;16.90;;;;;;;5.58;100.00;98406.41;217221;1260;139715;-67
2023/12/12 02:35:01;;;;;;;28.00;17.30;;;;;;;5.59;100.00;98412.62;218363;1259;140085;-68
2023/12/12 02:40:06;;;;;;;27.50;16.70;;;;;;;5.61;100.00;98416.77;220171;1259;140098;-68
2023/12/12 02:45:14;;;;;;;20.60;13.90;;;;;;;5.63;100.00;98418.20;220065;1259;140524;-68
2023/12/12 02:50:19;;;;;;;12.70;8.90;;;;;;;5.67;100.00;98420.98;219588;1259;139381;-68
2023/12/12 02:55:28;;;;;;;20.90;12.90;;;;;;;5.70;100.00;98424.44;219908;1259;139591;-70
2023/12/12 03:00:33;;;;;;;15.10;11.80;;;;;;;5.75;100.00;98426.74;217938;1259;139773;-69
2023/12/12 03:05:37;;;;;;;15.50;12.00;;;;;;;5.78;100.00;98427.64;217020;1260;139692;-69
2023/12/12 03:10:41;;;;;;;14.10;10.00;;;;;;;5.79;100.00;98428.09;217308;1259;151296;-68
2023/12/12 03:15:44;;;;;;;10.60;8.40;;;;;;;5.80;100.00;98429.80;217130;1260;140224;-67
2023/12/12 03:20:48;;;;;;;11.20;7.70;;;;;;;5.80;100.00;98430.48;217068;1260;139869;-67
2023/12/12 03:25:52;;;;;;;9.90;8.20;;;;;;;5.78;100.00;98433.36;218053;1258;139114;-69
2023/12/12 03:30:56;;;;;;;9.50;6.90;;;;;;;5.78;100.00;98439.13;217283;1259;139568;-68
2023/12/12 03:36:00;;;;;;;6.40;5.50;;;;;;;5.79;100.00;98441.36;217853;1260;139459;-67
2023/12/12 03:41:04;;;;;;;6.70;5.40;;;;;;;5.79;100.00;98445.64;217727;1260;139582;-69
2023/12/12 03:46:12;;;;;;;6.20;4.60;;;;;;;5.79;100.00;98452.21;217664;1260;138999;-68
2023/12/12 03:51:16;;;;;;;4.40;4.00;;;;;;;5.80;100.00;98459.02;217592;1257;139770;-68
2023/12/12 03:56:19;;;;;;;5.20;4.70;;;;;;;5.79;100.00;98461.20;217619;1260;139577;-68
2023/12/12 04:01:24;;;;;;;4.20;3.80;;;;;;;5.79;100.00;98465.64;217535;1260;139412;-68
2023/12/12 04:06:30;;;;;;;4.80;3.70;;;;;;;5.81;100.00;98467.04;217617;1256;140074;-69
2023/12/12 04:11:34;;;;;;;4.20;3.80;;;;;;;5.80;100.00;98469.36;218994;1256;140490;-70
2023/12/12 04:16:39;;;;;;;5.10;4.70;;;;;;;5.80;100.00;98474.01;217933;1257;139713;-69
2023/12/12 04:21:44;;;;;;;4.10;3.70;;;;;;;5.80;100.00;98479.57;217749;1256;139327;-69
2023/12/12 04:26:49;;;;;;;3.80;3.50;;;;;;;5.80;100.00;98486.16;220014;1256;141679;-69
2023/12/12 04:31:54;;;;;;;4.20;3.90;;;;;;;5.80;100.00;98495.69;217402;1260;153710;-68
2023/12/12 04:36:59;;;;;;;3.40;3.10;;;;;;;5.79;100.00;98494.36;217300;1256;139199;-69
2023/12/12 04:42:04;;;;;;;3.90;3.60;;;;;;;5.81;100.00;98494.86;219887;1257;139146;-69
2023/12/12 04:47:09;;;;;;;6.40;5.20;;;;;;;5.82;100.00;98498.36;218750;1260;140157;-68
2023/12/12 04:52:13;;;;;;;5.70;5.20;;;;;;;5.83;100.00;98496.79;217902;1257;139108;-69
2023/12/12 04:57:18;;;;;;;3.60;3.30;;;;;;;5.82;100.00;98502.17;217509;1257;139774;-69
2023/12/12 05:02:24;;;;;;;4.90;4.50;;;;;;;5.81;100.00;98505.95;218403;1256;140142;-67
2023/12/12 05:07:28;;;;;;;4.80;4.30;;;;;;;5.80;100.00;98515.98;217568;1257;140231;-68
2023/12/12 05:12:34;;;;;;;3.70;3.50;;;;;;;5.76;100.00;98515.56;217592;1260;139266;-69
2023/12/12 05:17:38;;;;;;;5.20;4.60;;;;;;;5.74;100.00;98518.63;218001;1256;139022;-67
2023/12/12 05:22:45;;;;;;;4.80;4.30;;;;;;;5.72;100.00;98526.30;217608;1257;139133;-69
2023/12/12 05:27:48;;;;;;;7.20;6.60;;;;;;;5.68;100.00;98533.36;218273;1260;139376;-68
2023/12/12 05:32:53;;;;;;;4.40;4.10;;;;;;;5.66;100.00;98541.09;218602;1256;158598;-67
2023/12/12 05:37:58;;;;;;;4.00;3.60;;;;;;;5.63;100.00;98544.77;217921;1257;139720;-67
2023/12/12 05:43:03;;;;;;;2.80;2.60;;;;;;;5.62;100.00;98549.94;218675;1257;139549;-68
2023/12/12 05:48:07;;;;;;;4.80;4.40;;;;;;;5.61;100.00;98554.52;217541;1260;139795;-69
2023/12/12 05:53:11;;;;;;;6.30;5.20;;;;;;;5.61;100.00;98560.70;217576;1256;139561;-68
2023/12/12 05:58:15;;;;;;;3.90;3.50;;;;;;;5.59;100.00;98568.74;217392;1256;139179;-68
2023/12/12 06:03:19;;;;;;;5.50;5.10;;;;;;;5.55;100.00;98582.29;218875;1259;139793;-68
2023/12/12 06:08:24;;;;;;;4.60;4.30;;;;;;;5.48;100.00;98595.73;218233;1257;139085;-69
2023/12/12 06:13:29;;;;;;;5.50;4.80;;;;;;;5.46;100.00;98602.50;217895;1256;138916;-67
2023/12/12 06:18:34;;;;;;;4.40;4.00;;;;;;;5.44;100.00;98617.66;217905;1260;140192;-68
2023/12/12 06:23:39;;;;;;;22.10;14.80;;;;;;;5.39;100.00;98625.13;218902;1257;140264;-70
2023/12/12 06:28:43;;;;;;;8.40;6.80;;;;;;;5.35;100.00;98631.62;218904;1256;139978;-67
2023/12/12 06:33:50;;;;;;;4.90;4.50;;;;;;;5.34;100.00;98643.38;217724;1256;139420;-66
2023/12/12 06:38:55;;;;;;;5.40;5.00;;;;;;;5.30;100.00;98647.10;218665;1259;139242;-67
2023/12/12 06:43:59;;;;;;;4.30;4.00;;;;;;;5.28;100.00;98652.53;217879;1257;139071;-68
2023/12/12 06:49:06;;;;;;;4.40;4.10;;;;;;;5.27;100.00;98663.56;218664;1256;139466;-67
2023/12/12 06:54:12;;;;;;;4.30;3.90;;;;;;;5.24;100.00;98666.79;219700;1256;139006;-69
2023/12/12 06:59:17;;;;;;;4.60;4.30;;;;;;;5.20;100.00;98673.89;219687;1257;139833;-68
2023/12/12 07:04:21;;;;;;;3.30;3.10;;;;;;;5.18;100.00;98681.84;218884;1260;141948;-67
2023/12/12 07:09:27;;;;;;;3.80;3.50;;;;;;;5.16;100.00;98686.75;218166;1260;139717;-67
2023/12/12 07:14:31;;;;;;;2.60;2.40;;;;;;;5.13;100.00;98693.42;219128;1256;141234;-68
2023/12/12 07:19:36;;;;;;;3.30;2.50;;;;;;;5.05;99.95;98702.95;217799;1256;139288;-68
2023/12/12 07:24:41;;;;;;;3.00;2.50;;;;;;;4.98;99.88;98710.79;217866;1260;139411;-68
2023/12/12 07:29:46;;;;;;;3.30;2.50;;;;;;;4.90;99.99;98724.47;218291;1259;140204;-70
2023/12/12 07:34:54;;;;;;;3.20;3.00;;;;;;;4.83;99.88;98728.80;217972;1256;140052;-69
2023/12/12 07:39:59;;;;;;;2.80;2.50;;;;;;;4.74;99.84;98736.90;218741;1257;138764;-68
2023/12/12 07:45:05;;;;;;;3.40;3.20;;;;;;;4.69;99.90;98753.08;218099;1257;139022;-68
2023/12/12 07:50:11;;;;;;;3.20;2.90;;;;;;;4.64;99.94;98761.00;217661;1260;140205;-66
2023/12/12 07:55:19;;;;;;;2.60;2.20;;;;;;;4.62;99.95;98770.13;217802;1257;139926;-69
2023/12/12 08:00:26;;;;;;;3.30;3.00;;;;;;;4.55;99.80;98780.65;217811;1259;140503;-69
2023/12/12 08:05:31;;;;;;;3.40;2.70;;;;;;;4.51;99.96;98790.44;217899;1256;139283;-68
2023/12/12 08:10:38;;;;;;;3.20;2.90;;;;;;;4.44;99.89;98803.33;218292;1255;150036;-67
2023/12/12 08:15:44;;;;;;;3.20;2.80;;;;;;;4.39;99.86;98815.30;219678;1256;139581;-67
2023/12/12 08:20:49;;;;;;;98.60;44.70;;;;;;;4.34;99.74;98820.54;218098;1257;139767;-67
2023/12/12 08:25:54;;;;;;;53.90;20.90;;;;;;;4.34;99.81;98825.58;218489;1256;139865;-68
2023/12/12 08:30:59;;;;;;;15.80;9.70;;;;;;;4.35;99.95;98835.55;219200;1257;139117;-67
2023/12/12 08:36:05;;;;;;;5.50;4.90;;;;;;;4.36;99.79;98848.62;218431;1257;139445;-67
2023/12/12 08:41:09;;;;;;;6.80;5.80;;;;;;;4.36;99.91;98852.59;218037;1256;139044;-68
2023/12/12 08:46:21;;;;;;;6.80;5.20;;;;;;;4.33;99.70;98862.55;219462;1257;139610;-68
2023/12/12 08:51:30;;;;;;;9.90;5.40;;;;;;;4.27;99.40;98871.09;220258;1256;139936;-68
2023/12/12 08:56:36;;;;;;;5.50;4.60;;;;;;;4.22;99.17;98886.86;218506;1259;140218;-68
2023/12/12 09:01:43;;;;;;;5.50;4.90;;;;;;;4.21;99.26;98901.95;218899;1256;139324;-68
2023/12/12 09:06:47;;;;;;;7.60;5.30;;;;;;;4.16;99.42;98912.98;218078;1257;140849;-66
2023/12/12 09:11:53;;;;;;;5.40;4.60;;;;;;;4.14;99.34;98916.92;218124;1257;140196;-69
2023/12/12 09:16:58;;;;;;;7.70;4.70;;;;;;;4.14;99.36;98920.38;218108;1259;139547;-67
2023/12/12 09:22:03;;;;;;;4.90;4.30;;;;;;;4.13;99.65;98922.37;218381;1260;140794;-68
2023/12/12 09:27:08;;;;;;;9.00;5.40;;;;;;;4.15;99.42;98927.88;218510;1257;139853;-69
2023/12/12 09:32:13;;;;;;;6.70;4.90;;;;;;;4.17;99.35;98937.80;218035;1260;140525;-68
2023/12/12 09:37:22;;;;;;;7.60;4.90;;;;;;;4.21;99.62;98939.94;218172;1257;139496;-69
2023/12/12 09:42:33;;;;;;;9.80;6.50;;;;;;;4.19;99.23;98946.64;217713;1260;140466;-68
2023/12/12 09:47:40;;;;;;;6.40;4.00;;;;;;;4.20;99.54;98944.29;219244;1257;139873;-68
2023/12/12 09:52:49;;;;;;;6.80;5.40;;;;;;;4.21;99.25;98949.77;217842;1259;139634;-69
2023/12/12 09:57:53;;;;;;;5.60;5.00;;;;;;;4.25;99.45;98950.31;219322;1259;139528;-68
2023/12/12 10:03:04;;;;;;;7.70;4.90;;;;;;;4.29;99.57;98954.80;217823;1257;140036;-69
2023/12/12 10:08:08;;;;;;;7.70;4.90;;;;;;;4.32;99.53;98963.05;217643;1256;139204;-69
2023/12/12 10:13:19;;;;;;;8.50;4.80;;;;;;;4.37;99.66;98959.31;218164;1256;139882;-67
2023/12/12 10:18:23;;;;;;;6.40;4.70;;;;;;;4.42;99.89;98958.80;218674;1257;139701;-68
2023/12/12 10:23:32;;;;;;;5.80;5.20;;;;;;;4.46;99.64;98961.12;217810;1255;139064;-68
2023/12/12 10:28:40;;;;;;;6.10;5.40;;;;;;;4.47;99.57;98968.83;220574;1257;139587;-69
2023/12/12 10:33:44;;;;;;;5.20;4.50;;;;;;;4.52;99.78;98969.65;220393;1257;138580;-69
2023/12/12 10:38:50;;;;;;;5.50;5.00;;;;;;;4.61;99.59;98965.75;218617;1257;139268;-68
2023/12/12 10:44:01;;;;;;;8.20;7.20;;;;;;;4.64;99.09;98960.20;217771;1257;140067;-68
2023/12/12 10:49:10;;;;;;;7.90;7.10;;;;;;;4.70;99.59;98957.23;218886;1257;139573;-67
2023/12/12 10:54:17;;;;;;;4.30;3.90;;;;;;;4.79;99.41;98958.88;218604;1259;139240;-68
2023/12/12 10:59:23;;;;;;;6.60;6.00;;;;;;;4.79;99.41;98966.23;219320;1256;141308;-69
2023/12/12 11:04:50;;;;;;;5.50;4.90;;;;;;;4.76;98.82;98975.67;217589;1257;139559;-67
2023/12/12 11:09:56;;;;;;;6.60;5.50;;;;;;;4.69;98.92;98984.33;218891;1256;140404;-68
2023/12/12 11:15:04;;;;;;;7.70;6.30;;;;;;;4.63;98.86;98989.77;218209;1256;139523;-68
2023/12/12 11:20:15;;;;;;;10.20;7.40;;;;;;;4.63;98.78;98990.41;217660;1256;140525;-68
2023/12/12 11:25:22;;;;;;;9.00;6.50;;;;;;;4.60;98.56;98997.02;217666;1259;139782;-68
2023/12/12 11:30:39;;;;;;;9.20;6.20;;;;;;;4.57;98.72;98993.61;218651;1259;139667;-71
2023/12/12 11:35:46;;;;;;;17.00;9.40;;;;;;;4.60;99.10;98982.38;218386;1257;139479;-68
2023/12/12 11:41:17;;;;;;;15.80;8.70;;;;;;;4.65;99.18;98988.21;217773;1257;139425;-68
2023/12/12 11:46:22;;;;;;;7.40;6.30;;;;;;;4.72;99.19;98987.55;217860;1256;139608;-68
2023/12/12 11:51:46;;;;;;;13.50;7.80;;;;;;;4.77;99.29;98992.20;218110;1259;140176;-67
2023/12/12 11:57:02;;;;;;;11.20;7.50;;;;;;;4.81;99.25;98989.24;217964;1259;139236;-68
2023/12/12 12:02:08;;;;;;;9.60;7.20;;;;;;;4.82;99.04;98994.11;218673;1257;139789;-69
2023/12/12 12:07:14;;;;;;;10.90;8.80;;;;;;;4.86;99.16;98998.67;217517;1260;140801;-67
2023/12/12 12:12:19;;;;;;;12.70;9.50;;;;;;;4.88;99.11;98998.13;218234;1260;140160;-66
2023/12/12 12:17:33;;;;;;;8.90;6.90;;;;;;;4.84;98.68;98994.39;218577;1256;408210;-68
2023/12/12 12:22:38;;;;;;;9.00;7.60;;;;;;;4.83;98.95;98996.46;219791;1256;140255;-70
2023/12/12 12:27:52;;;;;;;10.00;7.80;;;;;;;4.85;98.94;98998.31;219443;1257;154158;-67
2023/12/12 12:33:07;;;;;;;8.80;6.70;;;;;;;4.85;98.55;98997.05;219243;1256;140627;-68
2023/12/12 12:38:27;;;;;;;10.20;7.30;;;;;;;4.88;98.43;99002.20;220303;1256;139183;-69
2023/12/12 12:43:33;;;;;;;10.70;7.90;;;;;;;4.89;98.36;99006.88;220007;1257;139624;-68
2023/12/12 12:48:37;;;;;;;8.60;7.70;;;;;;;4.91;98.24;99001.45;219465;1256;140915;-68
2023/12/12 12:53:42;;;;;;;10.90;9.20;;;;;;;4.98;98.70;99001.61;218809;1256;139184;-67
2023/12/12 12:58:46;;;;;;;12.90;8.80;;;;;;;5.02;98.39;99003.23;217743;1260;141390;-67
2023/12/12 13:03:51;;;;;;;7.90;6.30;;;;;;;5.04;98.37;99005.50;218662;1260;139891;-67
2023/12/12 13:08:57;;;;;;;12.50;8.70;;;;;;;5.07;98.52;99005.77;218514;1260;140353;-67
2023/12/12 13:14:02;;;;;;;10.70;7.70;;;;;;;5.08;98.54;99008.27;218626;1257;140176;-68
2023/12/12 13:19:11;;;;;;;11.80;7.10;;;;;;;5.07;98.35;99011.41;219018;1258;140509;-67
2023/12/12 13:24:17;;;;;;;10.30;7.70;;;;;;;5.07;98.66;99014.66;217696;1259;140580;-67
2023/12/12 13:29:22;;;;;;;12.40;8.40;;;;;;;5.09;98.50;99013.59;217717;1260;139611;-67
2023/12/12 13:34:27;;;;;;;14.90;9.40;;;;;;;5.08;98.83;99009.29;217742;1260;140476;-67
2023/12/12 13:39:34;;;;;;;15.60;10.80;;;;;;;5.07;98.60;99008.89;218442;1260;140585;-67
2023/12/12 13:44:39;;;;;;;13.90;9.80;;;;;;;5.07;98.44;99012.21;218342;1260;142864;-67
2023/12/12 13:49:43;;;;;;;14.50;11.30;;;;;;;5.06;98.76;99015.39;218029;1258;139502;-67
2023/12/12 13:54:50;;;;;;;17.90;12.20;;;;;;;5.04;98.34;99017.77;218966;1260;139856;-67
2023/12/12 13:59:55;;;;;;;16.70;11.00;;;;;;;5.01;97.97;99013.33;218060;1260;139658;-65
2023/12/12 14:05:01;;;;;;;17.20;12.10;;;;;;;4.98;98.27;99017.00;217855;1260;221548;-65
2023/12/12 14:10:10;;;;;;;17.10;12.50;;;;;;;4.98;98.23;99017.00;218494;1257;140333;-68
2023/12/12 14:15:16;;;;;;;17.20;13.40;;;;;;;4.97;98.45;99013.27;219036;1257;141283;-67
2023/12/12 14:20:21;;;;;;;16.70;11.30;;;;;;;4.96;97.99;99013.55;219185;1259;139545;-66
2023/12/12 14:25:25;;;;;;;17.90;11.10;;;;;;;4.97;98.25;99014.38;219524;1260;139848;-67
2023/12/12 14:30:29;;;;;;;16.00;11.30;;;;;;;4.94;97.70;99009.40;220175;1257;140113;-67
2023/12/12 14:35:33;;;;;;;15.50;11.00;;;;;;;4.92;98.15;99007.50;220289;1257;140515;-67
2023/12/12 14:40:40;;;;;;;15.10;11.80;;;;;;;4.93;97.68;99003.79;218621;1260;139717;-66
2023/12/12 14:45:45;;;;;;;17.10;12.50;;;;;;;4.94;97.69;99007.40;218922;1257;141842;-66
2023/12/12 14:50:50;;;;;;;17.90;12.60;;;;;;;4.91;97.79;99001.66;219083;1257;140044;-66
2023/12/12 14:55:55;;;;;;;14.80;11.50;;;;;;;4.91;97.86;99000.71;217861;1257;141656;-66
2023/12/12 15:01:00;;;;;;;17.60;13.10;;;;;;;4.92;97.90;99000.26;218326;1257;140550;-67
2023/12/12 15:06:06;;;;;;;14.50;10.30;;;;;;;4.87;97.65;98997.64;218736;1258;140147;-67
2023/12/12 15:11:12;;;;;;;19.70;15.30;;;;;;;4.83;97.94;99004.38;217784;1260;140303;-67
2023/12/12 15:16:16;;;;;;;17.30;11.70;;;;;;;4.83;97.94;99006.65;218599;1257;139578;-67
2023/12/12 15:21:24;;;;;;;13.80;9.70;;;;;;;4.82;97.87;99009.88;218013;1258;139524;-67
2023/12/12 15:26:31;;;;;;;16.20;9.80;;;;;;;4.79;98.26;99006.36;218028;1260;140411;-66
2023/12/12 15:31:48;;;;;;;15.50;8.10;;;;;;;4.77;97.92;99002.08;218068;1257;140854;-67
2023/12/12 15:36:57;;;;;;;14.30;9.40;;;;;;;4.76;98.46;99002.60;218445;1257;140319;-66
2023/12/12 15:42:08;;;;;;;11.60;9.00;;;;;;;4.75;98.08;99000.46;218283;1257;139639;-66
2023/12/12 15:47:13;;;;;;;15.20;10.50;;;;;;;4.72;98.21;98993.57;217883;1260;139843;-66
2023/12/12 15:52:20;;;;;;;20.10;12.60;;;;;;;4.72;98.22;98995.92;217874;1257;139461;-66
2023/12/12 15:57:25;;;;;;;19.70;12.10;;;;;;;4.71;97.86;98999.14;217964;1257;140366;-68
2023/12/12 16:02:31;;;;;;;16.60;11.30;;;;;;;4.69;98.07;98996.52;217509;1260;139673;-67
2023/12/12 16:07:37;;;;;;;15.00;10.90;;;;;;;4.68;98.35;98987.63;218251;1260;139706;-66
2023/12/12 16:12:43;;;;;;;20.00;13.20;;;;;;;4.66;98.16;98986.39;218054;1257;140222;-68
2023/12/12 16:17:48;;;;;;;17.00;11.10;;;;;;;4.65;98.49;98978.55;219492;1256;139981;-68
2023/12/12 16:22:56;;;;;;;18.00;12.20;;;;;;;4.62;97.91;98981.61;218190;1256;141420;-68
2023/12/12 16:28:07;;;;;;;19.10;12.50;;;;;;;4.64;98.38;98978.96;220367;1256;140443;-67
2023/12/12 16:33:12;;;;;;;22.00;11.80;;;;;;;4.66;98.65;98978.73;220305;1256;139560;-68
2023/12/12 16:38:20;;;;;;;16.70;13.60;;;;;;;4.72;98.14;98980.25;220409;1256;140348;-67
2023/12/12 16:43:26;;;;;;;19.30;13.70;;;;;;;4.77;98.24;98981.88;218289;1256;142062;-68
2023/12/12 16:48:38;;;;;;;18.40;12.30;;;;;;;4.79;98.11;98980.77;219869;1256;140939;-68
2023/12/12 16:53:44;;;;;;;17.80;12.00;;;;;;;4.75;97.77;98981.97;218099;1256;141460;-67
2023/12/12 16:58:50;;;;;;;18.30;12.50;;;;;;;4.67;97.60;98979.84;217895;1257;140206;-66
2023/12/12 17:03:57;;;;;;;18.80;13.10;;;;;;;4.70;98.43;98975.31;219601;1256;140126;-68
2023/12/12 17:09:03;;;;;;;18.90;12.40;;;;;;;4.67;97.65;98976.95;218481;1257;140452;-67
2023/12/12 17:14:07;;;;;;;17.80;11.40;;;;;;;4.62;97.99;98970.16;217664;1256;140991;-66
2023/12/12 17:19:10;;;;;;;22.00;12.40;;;;;;;4.62;97.92;98973.77;218673;1260;139626;-70
2023/12/12 17:24:14;;;;;;;16.30;11.70;;;;;;;4.59;98.04;98971.11;218402;1257;139822;-67
2023/12/12 17:29:18;;;;;;;19.10;11.20;;;;;;;4.59;98.31;98974.02;218169;1256;139588;-71
2023/12/12 17:34:21;;;;;;;19.20;14.60;;;;;;;4.58;98.42;98975.31;217873;1257;139666;-68
2023/12/12 17:39:24;;;;;;;18.80;12.70;;;;;;;4.58;98.34;98974.63;218025;1257;139448;-67
2023/12/12 17:44:29;;;;;;;20.90;14.40;;;;;;;4.59;98.53;98968.58;217785;1256;139614;-67
2023/12/12 17:49:34;;;;;;;19.40;12.60;;;;;;;4.57;98.58;98971.41;219246;1256;140376;-70
2023/12/12 17:54:38;;;;;;;19.40;13.60;;;;;;;4.59;98.75;98963.61;219148;1256;140890;-71
2023/12/12 17:59:41;;;;;;;25.40;15.20;;;;;;;4.60;98.25;98963.70;218295;1257;139730;-68
2023/12/12 18:04:45;;;;;;;20.90;13.20;;;;;;;4.57;98.21;98966.41;217593;1257;210702;-68
2023/12/12 18:09:49;;;;;;;26.50;15.80;;;;;;;4.59;98.64;98956.27;217992;1258;139628;-67
2023/12/12 18:14:53;;;;;;;28.10;16.90;;;;;;;4.61;98.83;98951.94;218513;1256;139721;-66
2023/12/12 18:19:57;;;;;;;42.70;22.70;;;;;;;4.62;99.11;98955.95;219066;1257;141424;-67
2023/12/12 18:25:01;;;;;;;28.30;18.20;;;;;;;4.63;98.96;98954.85;217567;1260;140274;-70
2023/12/12 18:30:08;;;;;;;48.30;29.20;;;;;;;4.64;98.68;98956.42;218965;1256;139814;-68
2023/12/12 18:35:14;;;;;;;45.70;29.50;;;;;;;4.64;98.74;98954.06;219644;1256;140956;-69
2023/12/12 18:40:20;;;;;;;42.60;25.90;;;;;;;4.66;98.82;98954.86;220253;1256;140144;-70
2023/12/12 18:45:25;;;;;;;39.90;24.60;;;;;;;4.66;98.47;98954.66;219904;1256;140365;-69
2023/12/12 18:50:29;;;;;;;46.60;27.00;;;;;;;4.64;98.24;98949.23;220586;1256;139353;-69
2023/12/12 18:55:33;;;;;;;55.30;31.00;;;;;;;4.66;98.66;98944.35;219475;1256;140378;-69
2023/12/12 19:00:41;;;;;;;77.70;34.50;;;;;;;4.69;98.74;98941.77;219236;1256;140931;-69
2023/12/12 19:05:46;;;;;;;55.80;29.00;;;;;;;4.71;98.56;98940.25;219374;1256;141770;-70
2023/12/12 19:10:53;;;;;;;57.50;29.40;;;;;;;4.69;98.29;98938.71;217610;1256;141125;-69
2023/12/12 19:15:59;;;;;;;52.70;32.90;;;;;;;4.70;98.66;98938.10;219078;1256;151637;-69
2023/12/12 19:21:03;;;;;;;55.10;33.30;;;;;;;4.69;98.97;98936.27;218829;1256;139940;-70
2023/12/12 19:26:07;;;;;;;54.90;31.20;;;;;;;4.72;98.82;98933.62;217494;1256;140328;-69
2023/12/12 19:31:12;;;;;;;60.80;32.30;;;;;;;4.74;99.17;98934.05;218236;1255;139527;-69
2023/12/12 19:36:17;;;;;;;62.20;36.10;;;;;;;4.70;98.92;98936.27;218036;1256;140342;-69
2023/12/12 19:41:21;;;;;;;52.40;31.80;;;;;;;4.68;99.21;98939.42;218149;1257;139925;-69
2023/12/12 19:46:29;;;;;;;57.00;31.20;;;;;;;4.69;98.96;98937.80;217905;1256;139627;-69
2023/12/12 19:51:33;;;;;;;56.00;31.70;;;;;;;4.67;99.07;98940.07;217782;1257;141735;-69
2023/12/12 19:56:38;;;;;;;56.20;31.50;;;;;;;4.62;98.86;98937.10;218553;1256;139647;-70
2023/12/12 20:01:42;;;;;;;51.50;29.80;;;;;;;4.61;99.07;98938.30;218922;1256;141779;-70
2023/12/12 20:06:47;;;;;;;52.60;31.50;;;;;;;4.65;99.34;98934.61;219475;1255;141630;-69
2023/12/12 20:11:51;;;;;;;49.70;29.00;;;;;;;4.68;99.16;98931.86;218058;1256;140288;-69
2023/12/12 20:16:58;;;;;;;54.40;31.50;;;;;;;4.67;98.90;98931.91;219591;1258;140447;-69
2023/12/12 20:22:05;;;;;;;51.70;32.30;;;;;;;4.68;98.85;98930.16;220319;1254;140665;-69
2023/12/12 20:27:11;;;;;;;51.60;29.70;;;;;;;4.69;99.09;98921.98;217920;1256;140089;-69
2023/12/12 20:32:17;;;;;;;44.90;26.80;;;;;;;4.72;99.18;98925.30;220572;1256;141444;-70
2023/12/12 20:37:21;;;;;;;53.50;30.10;;;;;;;4.77;99.41;98922.09;220442;1256;140228;-70
2023/12/12 20:42:30;;;;;;;49.40;28.90;;;;;;;4.83;99.40;98918.50;219666;1256;140468;-70
2023/12/12 20:47:36;;;;;;;45.50;25.90;;;;;;;4.87;99.29;98914.57;220644;1256;141422;-70
2023/12/12 20:52:41;;;;;;;50.60;28.70;;;;;;;4.86;98.78;98902.39;219001;1256;140509;-69
2023/12/12 20:57:45;;;;;;;44.30;28.00;;;;;;;4.82;98.36;98897.52;219166;1256;141161;-70
2023/12/12 21:02:52;;;;;;;55.80;29.50;;;;;;;4.83;98.82;98896.21;218804;1256;139826;-69
2023/12/12 21:07:57;;;;;;;51.70;29.40;;;;;;;4.82;98.62;98902.79;218536;1256;140627;-69
2023/12/12 21:13:00;;;;;;;45.70;24.10;;;;;;;4.81;98.45;98905.64;218337;1257;140381;-70
2023/12/12 21:18:06;;;;;;;45.20;26.00;;;;;;;4.77;98.40;98906.00;218752;1256;142597;-69
2023/12/12 21:23:12;;;;;;;49.60;27.10;;;;;;;4.70;98.31;98902.33;219287;1256;140069;-70
2023/12/12 21:28:18;;;;;;;42.90;23.50;;;;;;;4.66;98.44;98904.83;218670;1255;139784;-70
2023/12/12 21:33:23;;;;;;;41.10;23.70;;;;;;;4.65;98.37;98899.80;218315;1257;141229;-69
2023/12/12 21:38:33;;;;;;;41.80;22.90;;;;;;;4.64;98.74;98905.98;218550;1257;161612;-68
2023/12/12 21:43:39;;;;;;;41.10;24.20;;;;;;;4.64;98.60;98911.02;218341;1256;140669;-69
2023/12/12 21:48:47;;;;;;;43.40;23.10;;;;;;;4.63;98.92;98916.52;218222;1256;140708;-69
2023/12/12 21:53:53;;;;;;;34.40;19.40;;;;;;;4.62;98.77;98910.75;218315;1256;140058;-69
2023/12/12 21:58:57;;;;;;;38.00;20.20;;;;;;;4.57;98.48;98907.44;219348;1256;139757;-70
2023/12/12 22:04:05;;;;;;;39.50;22.10;;;;;;;4.56;98.95;98907.21;218456;1259;139840;-69
2023/12/12 22:09:11;;;;;;;42.60;20.90;;;;;;;4.56;99.04;98902.91;218884;1256;141340;-69
2023/12/12 22:14:16;;;;;;;37.40;21.50;;;;;;;4.54;98.89;98898.17;219407;1255;139686;-70
2023/12/12 22:19:21;;;;;;;40.30;20.60;;;;;;;4.52;98.72;98898.56;219284;1256;141000;-69
2023/12/12 22:24:26;;;;;;;43.10;23.80;;;;;;;4.49;98.71;98897.64;220549;1256;139779;-70
2023/12/12 22:29:31;;;;;;;61.60;28.80;;;;;;;4.50;98.72;98890.16;220272;1256;141865;-70
2023/12/12 22:34:35;;;;;;;39.00;23.10;;;;;;;4.52;98.67;98893.97;220665;1256;141288;-69
2023/12/12 22:39:39;;;;;;;44.80;23.50;;;;;;;4.50;98.69;98890.54;220426;1256;140013;-70
2023/12/12 22:44:42;;;;;;;40.80;21.20;;;;;;;4.49;98.37;98890.73;219641;1256;140573;-69
2023/12/12 22:49:47;;;;;;;33.00;20.60;;;;;;;4.45;97.97;98885.05;219067;1256;139749;-68
2023/12/12 22:54:51;;;;;;;34.10;19.60;;;;;;;4.40;97.84;98880.30;217639;1256;139328;-68
2023/12/12 22:59:56;;;;;;;35.70;18.50;;;;;;;4.37;98.22;98876.90;217904;1256;140322;-68
2023/12/12 23:05:01;;;;;;;34.50;21.10;;;;;;;4.33;98.11;98871.48;218742;1255;140562;-69
2023/12/12 23:10:09;;;;;;;41.00;19.50;;;;;;;4.26;97.86;98873.74;218662;1256;141478;-69
2023/12/12 23:15:15;;;;;;;39.00;21.00;;;;;;;4.19;98.07;98868.94;218016;1256;140198;-69
2023/12/12 23:20:20;;;;;;;44.30;24.60;;;;;;;4.14;97.95;98866.13;218871;1256;139868;-70
2023/12/12 23:25:25;;;;;;;35.30;21.90;;;;;;;4.12;98.15;98860.45;217557;1256;139513;-69